ルクソール の空港の天気 - METARとTAF

ルクソール国際空港 ( HELX / LXR ) - エジプト ルクソール
飛行場実況気象(Metar)
観測時間09/25 03:00 EET (09/25 01:00 UTC)
風向・風速南東 2m/s
視程10km以上
天気現象
なし
気温26℃
湿度51%
気圧1009hPa
METARHELX 250100Z 14004KT CAVOK 26/15 Q1009 NOSIG
過去の天気等 Google飛行場航空写真 Wunderground天気予報

過去48時間のMETAR

飛行場予報(TAF)
発表時間: 9/25 01:00 EET (9/24 23:00 UTC)
予報対象時間: 25日2時 EET ~ 26日8時 EET
風向・風速北西 4m/s
視程10km以上
なし
TAF HELX 242300Z 2500/2606 31008KT CAVOK